logo
Games tagged Nonlinear
# Game Release date
Price
Score rank
(Userscore / Metascore)
Owners
Players
Playtime (Median)
Developer(s)
Publisher(s)
1 The Witness Jan 26, 2016 $39.99N/A (N/A/87%)1,000,000 .. 2,000,0000%00:00 (00:00)Thekla, Inc.Thekla, Inc.
2 Europa Universalis IV Aug 13, 2013 $11.99N/A (N/A/87%)5,000,000 .. 10,000,0005.17%11:47 (17:39)Paradox Development Studio, Paradox TintoParadox Interactive
3 Her Story Jun 24, 2015 $0.99N/A (N/A/86%)1,000,000 .. 2,000,0000%00:00 (00:00)Sam BarlowSam Barlow
4 Manifold Garden Oct 20, 2020 $6.99N/A (N/A/85%)200,000 .. 500,0000%00:00 (00:00)William Chyr StudioWilliam Chyr Studio
5 Telling Lies Aug 23, 2019 $19.99N/A (N/A/84%)200,000 .. 500,0000%00:00 (00:00)Sam Barlow, Half Mermaid, Furious Bee LimitedAnnapurna Interactive
6 Reventure Jun 4, 2019 $7.99N/A (N/A/84%)500,000 .. 1,000,0000%00:00 (00:00)PixelattoPixelatto
7 Duskers May 18, 2016 $9.99N/A (N/A/83%)500,000 .. 1,000,0000%00:00 (00:00)Misfits AtticMisfits Attic
8 Burly Men at Sea Sep 29, 2016 $9.99N/A (N/A/82%)50,000 .. 100,0000%00:00 (00:00)Brain&BrainBrain&Brain
9 Antichamber Jan 31, 2013 $19.99N/A (N/A/82%)1,000,000 .. 2,000,0000%00:00 (00:00)Alexander BruceDemruth
10 B-17 Flying Fortress: The Mighty 8th Oct 30, 2014 $7.99N/A (N/A/82%)20,000 .. 50,0000%00:00 (00:00)Wayward DesignMicroProse Software
11 The Age of Decadence Oct 14, 2015 $14.99N/A (N/A/81%)200,000 .. 500,0000%00:00 (00:00)Iron Tower StudioIron Tower Studio
12 Semblance Jul 24, 2018 $9.99N/A (N/A/79%)20,000 .. 50,0000%00:00 (00:00)NyamakopGood Shepherd Entertainment
13 Pilgrims Oct 7, 2019 $1.74N/A (N/A/78%)100,000 .. 200,0000%00:00 (00:00)Amanita DesignAmanita Design
14 The Norwood Suite Oct 2, 2017 $9.99N/A (N/A/78%)50,000 .. 100,0000%00:00 (00:00)Cosmo DAlliance
15 Rebel Galaxy Outlaw Sep 22, 2020 $29.99N/A (N/A/77%)100,000 .. 200,0000%00:00 (00:00)Double Damage GamesDouble Damage Games
16 Teslagrad Dec 13, 2013 $9.99N/A (N/A/77%)200,000 .. 500,0000%00:00 (00:00)Rain GamesRain Games
17 Lucifer Within Us Oct 15, 2020 $19.99N/A (N/A/76%)100,000 .. 200,0000%00:00 (00:00)Kitfox GamesKitfox Games
18 Obduction Aug 24, 2016 $29.99N/A (N/A/76%)200,000 .. 500,0000%00:00 (00:00)Cyan Inc.Cyan Inc.
19 JumpJet Rex Apr 21, 2015 $9.99N/A (N/A/76%)0 .. 20,0000%00:00 (00:00)TreeFortress GamesTreeFortress Games
20 Dark Nights with Poe and Munro May 19, 2020 $12.99N/A (N/A/74%)100,000 .. 200,0000%00:00 (00:00)D'Avekki Studios LtdD'Avekki Studios Ltd
21 Willy Morgan and the Curse of Bone Town Aug 11, 2020 $19.99N/A (N/A/71%)20,000 .. 50,0000%00:00 (00:00)imaginarylabLeonardo Interactive, WhisperGames
22 Allods Online Oct 1, 2009 N/AN/A (N/A/69%)100,000 .. 200,0000%00:00 (00:00)IT TerritoryMY.GAMES
23 Songbringer Sep 1, 2017 $19.99N/A (N/A/68%)20,000 .. 50,0000%00:00 (00:00)Wizard FuWizard Fu, Double Eleven
24 Tesla Effect: A Tex Murphy Adventure May 8, 2014 $19.99N/A (N/A/68%)200,000 .. 500,0000%00:00 (00:00)Big Finish GamesBig Finish Games
25 OUTBUDDIES DX Oct 15, 2019 $17.99N/A (N/A/66%)50,000 .. 100,0000%00:00 (00:00)Julian LauferHeadup
26 InnerSpace Jan 16, 2018 $1.99N/A (N/A/65%)100,000 .. 200,0000%00:00 (00:00)PolyKnight GamesAspyr
27 Mable & The Wood Aug 23, 2019 $2.99N/A (N/A/62%)20,000 .. 50,0000%00:00 (00:00)Triplevision GamesGraffiti Games
28 This is the Zodiac Speaking Oct 15, 2020 $0.77N/A (N/A/59%)20,000 .. 50,0000%00:00 (00:00)Punch Punk GamesKlabater
29 Frick Frack Mar 12, 2021 FreeN/A (N/A)0 .. 20,0000%00:00 (00:00)Weston Bell-GeddesSpookulele Games
30 There Was A Dream Feb 11, 2021 N/AN/A (N/A)0 .. 20,0000%00:00 (00:00)Keydare ProjectKeydare Project
31 Atrius Star Feb 10, 2021 FreeN/A (N/A)200,000 .. 500,0000%00:00 (00:00)Atomic LollypopAtomic Lollypop
32 Freelancer Life Simulator: Prologue Feb 4, 2021 FreeN/A (N/A)0 .. 20,0000%00:00 (00:00)DiamosDevDiamosDev
33 hexceed Jan 15, 2021 FreeN/A (N/A)200,000 .. 500,0000%00:00 (00:00)ToastieLabsToastieLabs
34 Acolyte: Prologue Jan 10, 2021 FreeN/A (N/A)50,000 .. 100,0000%00:00 (00:00)SuperstringSuperstring
35 Wetware Jan 7, 2021 FreeN/A (N/A)50,000 .. 100,0000%00:00 (00:00)Brainfists LLCBrainfists LLC
36 LUX SINE Dec 30, 2020 FreeN/A (N/A)20,000 .. 50,0000%00:00 (00:00)Alex Suber, Nate Turley, Mark FingerhutAlex Suber, Breton Schwarzenbach
37 Happy New Year, Zeliria! Dec 25, 2020 FreeN/A (N/A)0 .. 20,0000%00:00 (00:00)Salangan GamesPhoenix_co
38 Idle Slayer Dec 21, 2020 FreeN/A (N/A)200,000 .. 500,0000%00:00 (00:00)Pablo LebanPablo Leban
39 AOD: Art Of Defense Dec 1, 2020 FreeN/A (N/A)100,000 .. 200,0000%00:00 (00:00)SatedaSateda
40 DreamWatcher Nov 27, 2020 FreeN/A (N/A)20,000 .. 50,0000%00:00 (00:00)Class of 2019-2020Campus ADN
41 Astria Nov 15, 2020 FreeN/A (N/A)20,000 .. 50,0000%00:00 (00:00)Rémi AdrianoRémi Adriano
42 Buddy's Creative Quest! Nov 10, 2020 N/AN/A (N/A)20,000 .. 50,0000%00:00 (00:00)BitBASICdevBitBASICdev
43 Sloth Tales Oct 30, 2020 FreeN/A (N/A)0 .. 20,0000%00:00 (00:00)Dracula's CaveDracula's Cave
44 Warlock Bentspine - Toilet Edition Oct 28, 2020 FreeN/A (N/A)0 .. 20,0000%00:00 (00:00)LazroolLazrool, GZ Storm
45 Ratten Reich - Dance of Kings Oct 25, 2020 N/AN/A (N/A)50,000 .. 100,0000%00:00 (00:00)MASMAS
46 Mousebound Oct 23, 2020 FreeN/A (N/A)0 .. 20,0000%00:00 (00:00)GNos GamesGNos Games
47 Insect Adventure Demo Oct 20, 2020 FreeN/A (N/A)0 .. 20,0000%00:00 (00:00)MAYOFORCEMAYOFORCE
48 Binaural Odyssey Oct 15, 2020 FreeN/A (N/A)20,000 .. 50,0000%00:00 (00:00)Yle Sandbox, RagingRam OyYle Sandbox
49 Mead Crafter Sep 30, 2020 FreeN/A (N/A)0 .. 20,0000%00:00 (00:00)Viroid Games Inc.Viroid Games Inc.
50 Liquidators Sep 30, 2020 FreeN/A (N/A)50,000 .. 100,0000%00:00 (00:00)Gray UnitGray Unit, Juggernaut Entertainment
51 Castle Rock Beach, West Australia Sep 26, 2020 N/AN/A (N/A)20,000 .. 50,0000%00:00 (00:00)Matt NewellMatt Newell
52 6th Dimension Sep 25, 2020 FreeN/A (N/A)0 .. 20,0000%00:00 (00:00)Guerilla MediaGuerilla Media
53 Critterland Aug 15, 2020 FreeN/A (N/A)0 .. 20,0000%00:00 (00:00)Kendall Zhu, Richard Amankwaa, Saketh RamaKendall Zhu, Richard Amankwaa, Saketh Rama
54 Vidiot Game Aug 14, 2020 FreeN/A (N/A)100,000 .. 200,0000%00:00 (00:00)GZ StormGZ Storm
55 ARISEN: Prologue Jul 18, 2020 N/AN/A (N/A)50,000 .. 100,0000%00:00 (00:00)MaratusMaratus
56 Whateverland: Prologue Jun 10, 2020 FreeN/A (N/A)50,000 .. 100,0000%00:00 (00:00)Caligari GamesCaligari Games, WhisperGames
57 Starstruck: Prologue May 12, 2020 FreeN/A (N/A)0 .. 20,0000%00:00 (00:00)Createdelic, LLCCreatedelic, LLC
58 ANARCHY May 7, 2020 FreeN/A (N/A)500,000 .. 1,000,0000%00:00 (00:00)NewProjektNewProjekt
59 Starship Saboteur Prototype May 5, 2020 FreeN/A (N/A)50,000 .. 100,0000%00:00 (00:00)CatlandCatland
60 Inferno Wizards Apr 17, 2020 FreeN/A (N/A)0 .. 20,0000%00:00 (00:00)Home Fire GamesHome Fire Games
61 Iveri: The 1.000 Story Mar 14, 2020 N/AN/A (N/A)0 .. 20,0000%00:00 (00:00)Blender Games
62 HumanBloodSandwich Mar 6, 2020 N/AN/A (N/A)20,000 .. 50,0000%00:00 (00:00)AmyBerylAmyBeryl
63 Feb 4, 2020 N/AN/A (N/A)0 .. 20,0000%00:00 (00:00)Extreme Games
64 Mirage Online Classic Dec 24, 2019 FreeN/A (N/A)50,000 .. 100,0000%00:00 (00:00)Retrelon Games, LLCRetrelon Games, LLC
65 Adventure or Normality? Oct 29, 2019 N/AN/A (N/A)0 .. 20,0000%00:00 (00:00)My Way Games
66 Thibalryn Jun 13, 2019 FreeN/A (N/A)20,000 .. 50,0000%00:00 (00:00)CoolJosh3kCoolJosh3k Games
67 King Rabbit - Puzzle Jan 25, 2019 FreeN/A (N/A)50,000 .. 100,0000%00:00 (00:00)RareSlothRareSloth
68 Les 4 Alice: Lorange Journey Aug 13, 2018 N/AN/A (N/A)0 .. 20,0000%00:00 (00:00)PalveGames
69 Non-Linear Text Quests Jul 24, 2018 FreeN/A (N/A)0 .. 20,0000%00:00 (00:00)NLB projectNLB project
70 Naev Jul 17, 2017 FreeN/A (N/A)100,000 .. 200,0000%00:00 (00:00)Naev TeamNaev Team
71 You Doesn't Exist Apr 4, 2017 FreeN/A (N/A)20,000 .. 50,0000%00:00 (00:00)yo252yoyo252yo
72 The Other 99 Aug 25, 2016 N/AN/A (N/A)0 .. 20,0000%00:00 (00:00)Burning ArrowBurning Arrow
73 The Panic Room Apr 27, 2016 FreeN/A (N/A)200,000 .. 500,0000%00:00 (00:00)GameXP.comGameXP.com
74 Heroine's Quest: The Herald of Ragnarok Mar 20, 2014 FreeN/A (N/A)200,000 .. 500,0000%00:00 (00:00)Crystal ShardCrystal Shard
75 Treasure Adventure Game Nov 26, 2011 FreeN/A (N/A)100,000 .. 200,0000%00:00 (00:00)Robit GamesRobit Games
76 Scratches - Director's Cut Mar 8, 2006 N/AN/A (N/A)200,000 .. 500,0000%00:00 (00:00)NucleosysNucleosys
77 Escape Artist Coming this summer N/AN/A (N/A)0 .. 20,0000%00:00 (00:00)Kyle FrickKyle Frick
78 SJ-19 Learns To Love! Apr 23, 2021 $6.99N/A (N/A)0 .. 20,0000%00:00 (00:00)ZertukZertuk
79 After Apr 23, 2021 $19.99N/A (N/A)0 .. 20,0000%00:00 (00:00)Hyperdrive Gaming StudioHyperdrive Gaming Studio
80 Maskmaker Apr 20, 2021 $14.99N/A (N/A)100,000 .. 200,0000%00:00 (00:00)InnerspaceVRVertigo Games
81 Puzzletronics Digital Infinite Apr 20, 2021 $1.99N/A (N/A)0 .. 20,0000%00:00 (00:00)Naoka GamesNaoka Games
82 Ashwalkers Apr 15, 2021 $2.39N/A (N/A)0 .. 20,0000%00:00 (00:00)Nameless XIIIDear Villagers, 24 Entertainment
83 Lunch Lady Apr 15, 2021 $4.99N/A (N/A)200,000 .. 500,0000%00:00 (00:00)Manic MiceManic Mice
84 Rogue Sentry Apr 15, 2021 $7.99N/A (N/A)0 .. 20,0000%00:00 (00:00)MapledevMapledev
85 Amazing Fix Apr 14, 2021 $4.99N/A (N/A)0 .. 20,0000%00:00 (00:00)Nicolas Beaudette, Karl Dupere-RicherNicolas Beaudette
86 Curiosity Apr 11, 2021 $3.99N/A (N/A)0 .. 20,0000%00:00 (00:00)NonStandardCodeNonStandardCode
87 CARNAL Apr 9, 2021 $0.99N/A (N/A)50,000 .. 100,0000%00:00 (00:00)JG RoosTendokore, MercySoft
88 Converter Apr 6, 2021 $5.99N/A (N/A)20,000 .. 50,0000%00:00 (00:00)Funkyzeit GamesFunkyzeit Games
89 SDST: Deluxe Apr 5, 2021 N/AN/A (N/A)0 .. 20,0000%00:00 (00:00)Banana CatBanana Cat
90 L'intrépide, le futur de l'imparfait Mar 31, 2021 FreeN/A (N/A)0 .. 20,0000%00:00 (00:00)Alexis Hernandez, Gökhan Unalan, Gaëtan Galati, Ludus AcadémieArtificial Captain, Ludus Académie
91 Endline Mar 29, 2021 $4.99N/A (N/A)0 .. 20,0000%00:00 (00:00)MinicedMiniced
92 Paradise Lost Mar 24, 2021 $14.99N/A (N/A)100,000 .. 200,0000%00:00 (00:00)PolyAmorousWalkabout
93 All-Inn Mar 22, 2021 $9.99N/A (N/A)20,000 .. 50,0000%00:00 (00:00)Heart Art GamesHeart Art Games
94 The Frost Rebirth Mar 15, 2021 $12.99N/A (N/A)0 .. 20,0000%00:00 (00:00)Tephra CompanyTephra
95 THE BYTE Mar 15, 2021 $24.99N/A (N/A)0 .. 20,0000%00:00 (00:00)AVAKEAVAKE
96 Deep Therapy Mar 15, 2021 $1.99N/A (N/A)0 .. 20,0000%00:00 (00:00)Difranal StudioDifranal Studio
97 Maya Treasures Mar 15, 2021 $0.99N/A (N/A)20,000 .. 50,0000%00:00 (00:00)Stas Paty9mkinPiece Of Voxel
98 U27RA R3Z0NANC3 Mar 12, 2021 $4.99N/A (N/A)0 .. 20,0000%00:00 (00:00)DumividDumivid
99 Pirate Popper VR Mar 12, 2021 $1.99N/A (N/A)0 .. 20,0000%00:00 (00:00)Jellybean Game StudiosJellybean Game Studios
100 Altered Mar 12, 2021 $4.99N/A (N/A)0 .. 20,0000%00:00 (00:00)GlitchheartRooftop Panda
101 COUNT THE DEAD Mar 11, 2021 $14.99N/A (N/A)0 .. 20,0000%00:00 (00:00)1081GAMES1081GAMES
102 Freelancer Life Simulator Mar 5, 2021 $3.99N/A (N/A)0 .. 20,0000%00:00 (00:00)DiamosDevDiamosDev
103 How does it work!? Mar 4, 2021 $0.99N/A (N/A)0 .. 20,0000%00:00 (00:00)Piece Of VoxelPiece Of Voxel
104 Jurisdiction Mar 2, 2021 $19.99N/A (N/A)0 .. 20,0000%00:00 (00:00)Meteor ShockMeteor Shock
105 Scramble Mar 1, 2021 $2.99N/A (N/A)0 .. 20,0000%00:00 (00:00)NyberiusNyberius
106 Tortured Hearts - Or How I Saved The Universe. Again. Mar 1, 2021 $12.49N/A (N/A)0 .. 20,0000%00:00 (00:00)Teleport GamesGame Psych LLC
107 Playground VR Feb 26, 2021 $9.99N/A (N/A)0 .. 20,0000%00:00 (00:00)Source Byte Sp. z o.o., ROOM505, Blacer StudioSource Byte Sp. z o.o.
108 Of Mice and Moggies Feb 23, 2021 $7.99N/A (N/A)0 .. 20,0000%00:00 (00:00)BippinbitsBippinbits
109 Collapse: A Political Simulator Feb 23, 2021 $6.99N/A (N/A)50,000 .. 100,0000%00:00 (00:00)NostalgamesNostalgames
110 FoxPaww: a furry breakout-lite adventure Feb 19, 2021 $0.99N/A (N/A)0 .. 20,0000%00:00 (00:00)SnowySierraSnowySierra
111 The Catacombs of Solaris Revisited Feb 17, 2021 $11.99N/A (N/A)0 .. 20,0000%00:00 (00:00)Ian MacLartyShape Shop
112 Wild West Crops Feb 16, 2021 $4.99N/A (N/A)0 .. 20,0000%00:00 (00:00)lightUPlightUP
113 Enter The Backrooms Feb 12, 2021 $9.99N/A (N/A)50,000 .. 100,0000%00:00 (00:00)Justin KrohCosmic Crow Creations
114 Nominal Feb 9, 2021 N/AN/A (N/A)0 .. 20,0000%00:00 (00:00)Offworld Systems LLCOffworld Systems LLC
115 SpaceNET - A Space Adventure Feb 7, 2021 $11.99N/A (N/A)20,000 .. 50,0000%00:00 (00:00)Sonejo StudiosSonejo Studios
116 Pulse Jumper Feb 5, 2021 FreeN/A (N/A)0 .. 20,0000%00:00 (00:00)Fifth Edge StudiosFifth Edge Studios
117 Haunted Nightmares Feb 4, 2021 $2.99N/A (N/A)0 .. 20,0000%00:00 (00:00)Frank Gallinsky, Yuri Bechtholdf.y.g.b. Studios
118 Rogue Star Rescue Feb 4, 2021 $14.99N/A (N/A)0 .. 20,0000%00:00 (00:00)Chute AppsChute Apps
119 ThroughHelltoHeaven Feb 2, 2021 $6.99N/A (N/A)0 .. 20,0000%00:00 (00:00)OpticalPurgeStudios,LLC.OpticalPurgeStudios
120 Lilith Was Dead Feb 2, 2021 FreeN/A (N/A)20,000 .. 50,0000%00:00 (00:00)Heat Wave GamesHeat Wave Games
121 The Sych story Feb 2, 2021 $0.99N/A (N/A)20,000 .. 50,0000%00:00 (00:00)Svyatoslav BurobinSvyatoslav Burobin
122 Riddle of the Sphinx The Awakening (Enhanced Edition) Feb 1, 2021 $19.99N/A (N/A)50,000 .. 100,0000%00:00 (00:00)Old World Studios™Old World Studios™
123 Escapeworld Dilemma Jan 29, 2021 FreeN/A (N/A)0 .. 20,0000%00:00 (00:00)Sonoma GamesSonoma Games
124 Lost Caves Jan 29, 2021 $6.99N/A (N/A)0 .. 20,0000%00:00 (00:00)Adam D. SmithAdam D. Smith
125 Frontier Quest Jan 28, 2021 $11.99N/A (N/A)0 .. 20,0000%00:00 (00:00)Stellar Advent Pty LtdStellar Advent Pty Ltd
126 Handball Manager 2021 Jan 28, 2021 $24.99N/A (N/A)0 .. 20,0000%00:00 (00:00)netmin gamesnetmin games
127 Deep Enigma Jan 28, 2021 $4.99N/A (N/A)0 .. 20,0000%00:00 (00:00)1bit Games1bit Games
128 Among Stars and Robots Jan 28, 2021 $4.99N/A (N/A)0 .. 20,0000%00:00 (00:00)Haunted PigBlackdrop Interactive
129 PATHFINDER 08 Jan 28, 2021 $0.99N/A (N/A)0 .. 20,0000%00:00 (00:00)THIAGO COSTA MENDESTHIAGO COSTA MENDES
130 Tiny Lands Jan 21, 2021 $6.99N/A (N/A)20,000 .. 50,0000%00:00 (00:00)Hyper Three StudioMaple Whispering Limited
131 The Zodiac Trial Jan 21, 2021 $14.99N/A (N/A)50,000 .. 100,0000%00:00 (00:00)ThemisianThemisian
132 Plan Z Jan 20, 2021 N/AN/A (N/A)20,000 .. 50,0000%00:00 (00:00)RusWorldRusWorld
133 LeHweng LeHweng Dec 31, 2020 $2.99N/A (N/A)0 .. 20,0000%00:00 (00:00)soniczwasoniczwa
134 AI Dungeon—Traveler Edition Jan 15, 2021 N/AN/A (N/A)100,000 .. 200,0000%00:00 (00:00)LatitudeLatitude
135 Cosmotronik Jan 7, 2021 $5.99N/A (N/A)100,000 .. 200,0000%00:00 (00:00)Igor RykhlevskyiIgor Rykhlevskyi
136 Small Iron Jan 6, 2021 $1.99N/A (N/A)0 .. 20,0000%00:00 (00:00)Klastor GamesKlastor Games
137 Bad boy simulator Jan 2, 2021 $9.99N/A (N/A)0 .. 20,0000%00:00 (00:00)SoftWeather GamesSoftWeather Games
138 Hero's Spirit Dec 31, 2020 $5.99N/A (N/A)0 .. 20,0000%00:00 (00:00)mod.kitchenmod.kitchen
139 Without my arms Dec 30, 2020 $4.99N/A (N/A)0 .. 20,0000%00:00 (00:00)KillerkunKillerkun Games
140 Hell's Revenge 3D Dec 29, 2020 $1.99N/A (N/A)0 .. 20,0000%00:00 (00:00)Fernando GarridoFernando Garrido
141 Trajectory Fracture Dec 25, 2020 FreeN/A (N/A)0 .. 20,0000%00:00 (00:00)IcepickIcepick
142 Isekai: Reincarnation in a New World Dec 23, 2020 $3.99N/A (N/A)0 .. 20,0000%00:00 (00:00)Marcelo Aparecido de Almeida JuniorMarcelo Aparecido de Almeida Junior
143 Skinwalkers Dec 24, 2020 $2.99N/A (N/A)20,000 .. 50,0000%00:00 (00:00)Luis R. GamboaBoneYard Crew
144 Breath Dec 21, 2020 $2.99N/A (N/A)0 .. 20,0000%00:00 (00:00)HerbherthHerbherth
145 Amborettio Dec 21, 2020 $4.99N/A (N/A)50,000 .. 100,0000%00:00 (00:00)WanechWanech
146 The Adventures on Uranus Dec 17, 2020 $1.99N/A (N/A)0 .. 20,0000%00:00 (00:00)PizzaMenPizzaMen
147 Hidden Histories: The Principality Dec 10, 2020 $11.99N/A (N/A)0 .. 20,0000%00:00 (00:00)Unseelie CountUnseelie Count
148 Super tanks RPG Dec 9, 2020 $0.99N/A (N/A)20,000 .. 50,0000%00:00 (00:00)SRV-gamePiece Of Voxel
149 Look and Find - Curiosity Dec 9, 2020 $7.99N/A (N/A)0 .. 20,0000%00:00 (00:00)Lime Wedge GamesLime Wedge Games
150 Text Twisted Pro Dec 9, 2020 N/AN/A (N/A)0 .. 20,0000%00:00 (00:00)Tuga StudiosTuga Studios
151 Elephantasy Dec 7, 2020 $9.99N/A (N/A)0 .. 20,0000%00:00 (00:00)Benjamin Maksym (Linker)Benjamin Maksym (Linker)
152 Stars Die Dec 4, 2020 $4.99N/A (N/A)50,000 .. 100,0000%00:00 (00:00)Eric JuviEric Juvi
153 GENIUS AT WORK! Dec 3, 2020 $2.99N/A (N/A)0 .. 20,0000%00:00 (00:00)Lucas FernandezLucas Fernandez
154 Wet steps Dec 2, 2020 $2.99N/A (N/A)20,000 .. 50,0000%00:00 (00:00)Orika NekoiMoonworks
155 MegaRamp Nov 24, 2020 $1.99N/A (N/A)0 .. 20,0000%00:00 (00:00)TooIzzi GamesTooIzzi Games
156 Haydee 2 Nov 23, 2020 $24.99N/A (N/A)50,000 .. 100,0000%00:00 (00:00)Haydee InteractiveHaydee Interactive
157 Lighthouse Keeper Nov 22, 2020 $0.99N/A (N/A)100,000 .. 200,0000%00:00 (00:00)Nikita KafMissing Calm
158 Apotheker Nov 20, 2020 $9.99N/A (N/A)0 .. 20,0000%00:00 (00:00)Pine Drake GamesPine Drake Games
159 Syzygy Nov 20, 2020 FreeN/A (N/A)0 .. 20,0000%00:00 (00:00)Riccardo Caprari, Gas1312Riccardo Caprari
160 Castle Grimholt Nov 16, 2020 N/AN/A (N/A)0 .. 20,0000%00:00 (00:00)False Crow Studios LtdFalse Crow Studios Ltd
161 RGB Simulator Nov 16, 2020 $0.99N/A (N/A)0 .. 20,0000%00:00 (00:00)ToradySoftToradySoft
162 Forgotten Soundscape Nov 16, 2020 $9.99N/A (N/A)0 .. 20,0000%00:00 (00:00)Flavien ColletFlavien Collet
163 I hope she's ok Nov 13, 2020 $4.99N/A (N/A)0 .. 20,0000%00:00 (00:00)inkakamuinkakamu
164 despatch: Entity Astray Nov 13, 2020 $14.99N/A (N/A)20,000 .. 50,0000%00:00 (00:00)me.mento XR interactive AGme.mento XR interactive AG
165 墨心:波云诡船 Nov 12, 2020 $2.99N/A (N/A)200,000 .. 500,0000%00:00 (00:00)1001 Studio1001 Studio
166 Breathing Fear Nov 12, 2020 $1.99N/A (N/A)20,000 .. 50,0000%00:00 (00:00)LunarPixelLunarPixel
167 Drilly Willis Nov 9, 2020 $7.99N/A (N/A)0 .. 20,0000%00:00 (00:00)Private Pook GamesPrivate Pook Games
168 The Dealer Nov 1, 2020 N/AN/A (N/A)0 .. 20,0000%00:00 (00:00)Oleksii RybnikovOleksii Rybnikov
169 Seven Wonders of St. Clementine Oct 30, 2020 N/AN/A (N/A)0 .. 20,0000%00:00 (00:00)Imagine FantasiaBlack Hull
170 KONSAIRI Sep 27, 2020 $4.97N/A (N/A)0 .. 20,0000%00:00 (00:00)bitchunkbitchunk
171 Domino House Oct 28, 2020 $7.99N/A (N/A)0 .. 20,0000%00:00 (00:00)Purple CablePurple Cable
172 Mages and Treasures Oct 27, 2020 $4.99N/A (N/A)0 .. 20,0000%00:00 (00:00)lightUPlightUP
173 The Spectre Files: Deathstalker Oct 27, 2020 $9.99N/A (N/A)0 .. 20,0000%00:00 (00:00)Game Refuge, Galloping Ghost ProductionsGalloping Ghost Productions
174 Vincula Oct 23, 2020 FreeN/A (N/A)0 .. 20,0000%00:00 (00:00)Sixpi DevelopersSixpi Developers
175 OverTime Oct 22, 2020 $8.99N/A (N/A)0 .. 20,0000%00:00 (00:00)Heart Art GamesHeart Art Games
176 Fishy 3D Oct 21, 2020 $2.99N/A (N/A)0 .. 20,0000%00:00 (00:00)Sokpop CollectiveSokpop Collective
177 Tenderfoot Tactics Oct 21, 2020 $4.94N/A (N/A)0 .. 20,0000%00:00 (00:00)Badru, Michael Bell, Isa Hutchinson, Taylor Thomas, Zoe Vartanian, Madison PatheIce Water Games
178 Jiguland Oct 20, 2020 $0.99N/A (N/A)0 .. 20,0000%00:00 (00:00)JigumanJiguman
179 Kine Oct 19, 2020 $14.99N/A (N/A)0 .. 20,0000%00:00 (00:00)Chump SquadChump Squad
180 Euphoria: Supreme Mechanics Apr 17, 2020 $0.89N/A (N/A)0 .. 20,0000%00:00 (00:00)Whale Rock GamesWhale Rock Games
181 Rogue Aces Deluxe Oct 16, 2020 FreeN/A (N/A)20,000 .. 50,0000%00:00 (00:00)Infinite State Games, Projector StudiosInfinite State Games
182 The Den of Worms Oct 15, 2020 $9.99N/A (N/A)20,000 .. 50,0000%00:00 (00:00)Scream In To VoidScream In To Void
183 Paradox Vector Oct 15, 2020 $9.99N/A (N/A)0 .. 20,0000%00:00 (00:00)Schmidt WorkshopsSchmidt Workshops
184 BORIS THE ROCKET Oct 14, 2020 $9.99N/A (N/A)20,000 .. 50,0000%00:00 (00:00)toR StudiotoR Studio
185 Burger Joint Oct 14, 2020 $2.99N/A (N/A)20,000 .. 50,0000%00:00 (00:00)Ishbull StudiosIshbull Studios
186 Montezuma's Revenge Oct 13, 2020 $8.99N/A (N/A)20,000 .. 50,0000%00:00 (00:00)Normal Distribution LLCNormal Distribution LLC
187 Move 'n' Bloom Oct 12, 2020 FreeN/A (N/A)0 .. 20,0000%00:00 (00:00)Waldemar UmanizWaldemar Umaniz
188 The Viking Way Oct 10, 2020 $14.99N/A (N/A)50,000 .. 100,0000%00:00 (00:00)Ice Lava GamesIce Lava Games
189 Zof Oct 5, 2020 $14.99N/A (N/A)0 .. 20,0000%00:00 (00:00)Pete WilkinsPete Wilkins
190 Throw Me in the River Oct 5, 2020 $2.99N/A (N/A)0 .. 20,0000%00:00 (00:00)Side GroupSide Group
191 Silk Roads: Caravan Kings Oct 1, 2020 $7.99N/A (N/A)0 .. 20,0000%00:00 (00:00)Priory GamesPriory Games
192 TraptionBakery Oct 1, 2020 $4.99N/A (N/A)20,000 .. 50,0000%00:00 (00:00)Jon PrestidgeProperBostin Interactive
193 Mina & Michi Sep 22, 2020 $4.99N/A (N/A)0 .. 20,0000%00:00 (00:00)lightUPlightUP
194 Effigy : The Descent Sep 20, 2020 $4.99N/A (N/A)0 .. 20,0000%00:00 (00:00)EfficiencyRubika Supinfogame
195 Primeval Sep 19, 2020 $12.99N/A (N/A)0 .. 20,0000%00:00 (00:00)ExhibyteExhibyte
196 好久不见 - Long Time No See Sep 14, 2020 $4.99N/A (N/A)50,000 .. 100,0000%00:00 (00:00)SleepwalkStudio, 橙光游戏橙光游戏
197 Love on Paper Sep 10, 2020 $4.99N/A (N/A)0 .. 20,0000%00:00 (00:00)Mikołaj SpychałMikołaj Spychał
198 Lantern Bearer Sep 10, 2020 $9.99N/A (N/A)0 .. 20,0000%00:00 (00:00)kumakarekumakare
199 A Monster's Expedition Sep 10, 2020 $24.99N/A (N/A)100,000 .. 200,0000%00:00 (00:00)Draknek & FriendsDraknek & Friends
200 EPEJSODION Dodgeball Defense Sep 3, 2020 N/AN/A (N/A)0 .. 20,0000%00:00 (00:00)Tadeusz LorkowskiTadeusz Lorkowski
201 86 Sep 3, 2020 $4.99N/A (N/A)20,000 .. 50,0000%00:00 (00:00)Loony CodeLoony Code
202 Time Break Chronicles Sep 1, 2020 $14.99N/A (N/A)50,000 .. 100,0000%00:00 (00:00)Warrior General Games, LLCWarrior General Games, LLC
203 EscapeVr Sep 1, 2020 $10.99N/A (N/A)0 .. 20,0000%00:00 (00:00)Fence-InFence-In
204 Addle Earth Aug 28, 2020 $1.99N/A (N/A)0 .. 20,0000%00:00 (00:00)Sunland Estudios de Entretenimento LtdaSunland Estudios de Entretenimento Ltda
205 EPEJSODION Dodgeball Attack Aug 26, 2020 N/AN/A (N/A)0 .. 20,0000%00:00 (00:00)Tadeusz LorkowskiTadeusz Lorkowski
206 Abyss of Death Aug 24, 2020 $1.49N/A (N/A)0 .. 20,0000%00:00 (00:00)Vainture StudioVainture Studio
207 Citadale - The Awakened Spirit Aug 21, 2020 $3.59N/A (N/A)0 .. 20,0000%00:00 (00:00)ERMediaPlug In Digital
208 Splinter Aug 21, 2020 $0.99N/A (N/A)0 .. 20,0000%00:00 (00:00)Hobo StudiosHobo Studios
209 Fake Illusions Aug 20, 2020 $5.99N/A (N/A)0 .. 20,0000%00:00 (00:00)AuroriaxAuroriax
210 Gryphon Knight Epic: Definitive Edition Aug 20, 2020 $9.99N/A (N/A)0 .. 20,0000%00:00 (00:00)Cyber Rhino StudiosCyber Rhino Studios
211 Starshot Aug 16, 2020 FreeN/A (N/A)0 .. 20,0000%00:00 (00:00)HugeMallardHugeMallard
212 Prehistoric Dude Aug 11, 2020 $4.99N/A (N/A)0 .. 20,0000%00:00 (00:00)lightUPlightUP
213 三国模拟器 Three Kingdoms Simulator Jul 16, 2020 $5.99N/A (N/A)0 .. 20,0000%00:00 (00:00)UQI TechnologyUQI Technology
214 You Are Weak Aug 1, 2020 $2.99N/A (N/A)20,000 .. 50,0000%00:00 (00:00)OutlandsOutlands
215 Thousand Threads Jul 30, 2020 $19.99N/A (N/A)0 .. 20,0000%00:00 (00:00)SeamountSeamount
216 Milo's Quest Jul 29, 2020 $4.99N/A (N/A)0 .. 20,0000%00:00 (00:00)lightUPlightUP
217 Nowhere New Jul 18, 2020 $4.99N/A (N/A)0 .. 20,0000%00:00 (00:00)Space Girl StudiosSpace Girl Studios
218 soundStrider Jul 10, 2020 $0.99N/A (N/A)0 .. 20,0000%00:00 (00:00)shiftBacktickshiftBacktick
219 A Day Without Me Jun 27, 2020 $5.99N/A (N/A)20,000 .. 50,0000%00:00 (00:00)Gamecom Teamindie.io
220 Antidote Jun 19, 2020 $8.99N/A (N/A)0 .. 20,0000%00:00 (00:00)TEAPOT CreationTEAPOT Creation
221 VoxFox Jun 18, 2020 $1.49N/A (N/A)0 .. 20,0000%00:00 (00:00)Piece Of VoxelPiece Of Voxel
222 SKYHILL: Black Mist Jun 11, 2020 $2.99N/A (N/A)0 .. 20,0000%00:00 (00:00)MandragoraMandragora
223 The Deed II May 29, 2020 $4.99N/A (N/A)20,000 .. 50,0000%00:00 (00:00)Pilgrim AdventuresGrabTheGames
224 Intemporel May 28, 2020 $5.99N/A (N/A)0 .. 20,0000%00:00 (00:00)Flying ButterFlying Butter
225 Hedera May 21, 2020 $2.99N/A (N/A)0 .. 20,0000%00:00 (00:00)Aiaz MarxAiaz Marx
226 Astonishing Baseball Manager 20 May 15, 2020 $7.99N/A (N/A)0 .. 20,0000%00:00 (00:00)AerilysZero One
227 Virus Kombat May 12, 2020 $0.99N/A (N/A)0 .. 20,0000%00:00 (00:00)Artur RezendeArtur Rezende
228 Ato May 8, 2020 $14.99N/A (N/A)0 .. 20,0000%00:00 (00:00)Tiny Warrior GamesTiny Warrior Games
229 Venineth Apr 16, 2020 $19.99N/A (N/A)20,000 .. 50,0000%00:00 (00:00)Venineth Team, mort-artMonad Rock
230 Escape From Violet Institute Apr 16, 2020 $4.99N/A (N/A)0 .. 20,0000%00:00 (00:00)CJB GamesCJB Games
231 Wanderlust: Transsiberian Apr 9, 2020 $4.99N/A (N/A)0 .. 20,0000%00:00 (00:00)Different TalesDifferent Tales
232 Kill Yourself Mar 30, 2020 $2.99N/A (N/A)50,000 .. 100,0000%00:00 (00:00)GugamesGugames
233 Horizon's Gate Mar 9, 2020 $19.99N/A (N/A)50,000 .. 100,0000%00:00 (00:00)Rad CodexRad Codex
234 Factory Rally Madness Mar 7, 2020 $15.99N/A (N/A)0 .. 20,0000%00:00 (00:00)BRBOXBRBOX
235 Puddle Knights Mar 3, 2020 $3.99N/A (N/A)20,000 .. 50,0000%00:00 (00:00)LockpickleLockpickle
236 Into The Valley Mar 1, 2020 $9.99N/A (N/A)0 .. 20,0000%00:00 (00:00)One Little SerfOne Little Serf
237 Snaliens Feb 27, 2020 $7.99N/A (N/A)0 .. 20,0000%00:00 (00:00)JFerreiraJFerreira
238 Witch College 2 Feb 24, 2020 $4.99N/A (N/A)0 .. 20,0000%00:00 (00:00)Kavorka playKavorka play
239 DreadOut 2 Feb 21, 2020 $19.99N/A (N/A)100,000 .. 200,0000%00:00 (00:00)Digital HappinessDigital Happiness
240 CAR TUNE: Project Feb 20, 2020 $13.99N/A (N/A)20,000 .. 50,0000%00:00 (00:00)Vertices SoftwareVertices Software
241 DREAMO - Puzzle Adventure Feb 20, 2020 $9.99N/A (N/A)0 .. 20,0000%00:00 (00:00)Hypnotic AntsCarbon Studio
242 Survive In Russia Feb 17, 2020 $5.99N/A (N/A)0 .. 20,0000%00:00 (00:00)Alexander SablinAlexander Sablin
243 Wild Cats of Wasteland Jan 30, 2020 $3.14N/A (N/A)0 .. 20,0000%00:00 (00:00)VirtexUniverseVirtexUniverse
244 Bogatyr Jan 28, 2020 $0.99N/A (N/A)20,000 .. 50,0000%00:00 (00:00)the Bratansthe Bratans
245 SoulfulLand Jan 17, 2020 $5.99N/A (N/A)20,000 .. 50,0000%00:00 (00:00)RusimituRusimitu
246 SELF Jan 15, 2020 $4.99N/A (N/A)0 .. 20,0000%00:00 (00:00)doBellindienova
247 Emberglass Jan 13, 2020 $5.99N/A (N/A)20,000 .. 50,0000%00:00 (00:00)Paul Jessup, Prezumoto, Destroyer851Riddle Fox Games
248 Yuna and other troubles Jan 9, 2020 $9.99N/A (N/A)0 .. 20,0000%00:00 (00:00)Strawberry EntertainmentStrawberry Entertainment
249 Beat.School: DJ Simulator Dec 12, 2019 $7.99N/A (N/A)0 .. 20,0000%00:00 (00:00)NonLinear Educating Inc.NonLinear Educating Inc.
250 Sub Terra Draconis Dec 8, 2019 $9.99N/A (N/A)0 .. 20,0000%00:00 (00:00)Crystal ShardCrystal Shard
251 Espire 1: VR Operative Sep 24, 2019 $7.99N/A (N/A)50,000 .. 100,0000%00:00 (00:00)Digital LodeTripwire Presents
252 Romancing SaGa 3 Nov 11, 2019 $28.99N/A (N/A)50,000 .. 100,0000%00:00 (00:00)Square Enix, ArtePiazzaSquare Enix
253 A Zone Nov 1, 2019 $0.99N/A (N/A)0 .. 20,0000%00:00 (00:00)LUCKY STAR STUDIOLUCKY STAR STUDIO
254 Polyroll Oct 29, 2019 $5.99N/A (N/A)0 .. 20,0000%00:00 (00:00)Spicy Gyro Games, Shiny Dolphin Games LLCHOF Studios
255 Escape Zolstar Oct 9, 2019 $2.99N/A (N/A)0 .. 20,0000%00:00 (00:00)Robert AlvarezRobert Alvarez
256 Gordon Streaman Sep 26, 2019 $12.99N/A (N/A)0 .. 20,0000%00:00 (00:00)BrouillardBrouillard
257 Signal Decay Sep 19, 2019 $13.99N/A (N/A)0 .. 20,0000%00:00 (00:00)Nela SystemNela System, Gamera Games
258 Norman's Great Illusion Aug 29, 2019 $3.99N/A (N/A)0 .. 20,0000%00:00 (00:00)Civil SavagesCivil Savages
259 Summer Meetings Aug 28, 2019 $6.99N/A (N/A)0 .. 20,0000%00:00 (00:00)Mikołaj SpychałMikołaj Spychał
260 The Castle Aug 25, 2019 $5.99N/A (N/A)20,000 .. 50,0000%00:00 (00:00)Point & Pixel AdventuresPoint & Pixel Adventures
261 REDO! Aug 20, 2019 $9.99N/A (N/A)0 .. 20,0000%00:00 (00:00)Robson PaivaRobson Paiva
262 Rize of the Summonds Aug 8, 2019 $4.99N/A (N/A)0 .. 20,0000%00:00 (00:00)Rize Abov StudioRize Abov Studio
263 The Backrooms Aug 1, 2019 $0.99N/A (N/A)0 .. 20,0000%00:00 (00:00)WASABAE StudiosWASABAE Studios
264 The Backrooms Simulator Jul 23, 2019 $1.99N/A (N/A)0 .. 20,0000%00:00 (00:00)Pixel Plant LLCPixel Plant LLC
265 Arizona Derby Jul 22, 2019 $18.99N/A (N/A)20,000 .. 50,0000%00:00 (00:00)Falcon InteractiveFalcon Interactive
266 Mage Jul 14, 2019 $2.99N/A (N/A)0 .. 20,0000%00:00 (00:00)Game Sage ProductionsGame Sage Productions
267 Planaris 2+ Jul 9, 2019 $5.99N/A (N/A)0 .. 20,0000%00:00 (00:00)Bryce SummerBryce Summer
268 Monsters of Little Haven Jul 9, 2019 $2.99N/A (N/A)0 .. 20,0000%00:00 (00:00)Nikita KafMissing Calm
269 Super Web Kittens: Act I Jun 26, 2019 $9.99N/A (N/A)50,000 .. 100,0000%00:00 (00:00)Kuno HoshikoKuno Hoshiko
270 VICCP Jun 20, 2019 $2.49N/A (N/A)0 .. 20,0000%00:00 (00:00)quasardeepquasardeep
271 Flux Caves Jun 7, 2019 $1.99N/A (N/A)0 .. 20,0000%00:00 (00:00)FubenalvoFubenalvo
272 Sanator: Scarlet Scarf Jun 6, 2019 $9.99N/A (N/A)0 .. 20,0000%00:00 (00:00)Ignis SanatIgnis Sanat
273 China: Mao's legacy May 24, 2019 $6.99N/A (N/A)100,000 .. 200,0000%00:00 (00:00)NostalgamesNostalgames
274 An Adventurer's Tale May 23, 2019 N/AN/A (N/A)0 .. 20,0000%00:00 (00:00)Epic WorksOther Ocean Group
275 Fortress of Hell May 22, 2019 $6.99N/A (N/A)0 .. 20,0000%00:00 (00:00)Aldorlea GamesAldorlea Games
276 MIDNIGHT Remastered May 7, 2019 $0.99N/A (N/A)20,000 .. 50,0000%00:00 (00:00)Mad Jackal GamesMad Jackal Games
277 Epitasis May 1, 2019 $14.99N/A (N/A)20,000 .. 50,0000%00:00 (00:00)Epitasis GamesEpitasis Games
278 Phantasmata Apr 2019 $9.99N/A (N/A)20,000 .. 50,0000%00:00 (00:00)Phantasmata ProjectPhantasmata Project
279 The Color of the Roses Mar 27, 2019 $0.79N/A (N/A)0 .. 20,0000%00:00 (00:00)Lucky owlLucky owl
280 Mars Underground Mar 14, 2019 $1.99N/A (N/A)0 .. 20,0000%00:00 (00:00)Moloch MediaMoloch Media
281 Heretic Operative Feb 18, 2019 $19.99N/A (N/A)20,000 .. 50,0000%00:00 (00:00)C Prompt GamesC Prompt Games
282 Element Space Feb 14, 2019 $14.99N/A (N/A)20,000 .. 50,0000%00:00 (00:00)Sixth VowelInca Games
283 Furries & Scalies & Bears OH MY! Jan 16, 2019 $9.99N/A (N/A)0 .. 20,0000%00:00 (00:00)Stefan Klaus, Stegalosaurus Game DevelopmentStefan Klaus, Stegalosaurus Game Development
284 Vision Soft Reset Jan 16, 2019 $9.99N/A (N/A)0 .. 20,0000%00:00 (00:00)Seafloor Games LLCSeafloor Games LLC
285 Laser Maze Jan 4, 2019 $4.99N/A (N/A)0 .. 20,0000%00:00 (00:00)-Yodasaurus- Games-Yodasaurus- Games
286 Wrench Dec 19, 2018 $29.99N/A (N/A)50,000 .. 100,0000%00:00 (00:00)Missing DigitMissing Digit
287 Auri's Tales Dec 12, 2018 $2.99N/A (N/A)0 .. 20,0000%00:00 (00:00)Dad's IndieDad's Indie Studio
288 The Crown of Leaves Nov 26, 2018 $3.24N/A (N/A)100,000 .. 200,0000%00:00 (00:00)LingrimmThe Broken Horn
289 Surrogate Oct 23, 2018 $7.99N/A (N/A)0 .. 20,0000%00:00 (00:00)Quiet StormQuiet Storm
290 Heliophobia Oct 18, 2018 $9.99N/A (N/A)0 .. 20,0000%00:00 (00:00)Glass Knuckle GamesGlass Knuckle Games
291 The 9th Gate Oct 17, 2018 $5.99N/A (N/A)0 .. 20,0000%00:00 (00:00)Spacepup EntertainmentSpacepup Entertainment
292 Wrath of the Goliaths: Dinosaurs Sep 13, 2018 $9.99N/A (N/A)0 .. 20,0000%00:00 (00:00)Ascendence StudiosAscendence Studios
293 Witch The Bloodlines Sep 3, 2018 $3.74N/A (N/A)0 .. 20,0000%00:00 (00:00)Kerim KumbasarKerim Kumbasar
294 Spooky Ghosts Dot Com Aug 3, 2018 $4.99N/A (N/A)0 .. 20,0000%00:00 (00:00)ZertukZertuk
295 SaGa SCARLET GRACE: AMBITIONS Aug 1, 2018 $29.99N/A (N/A)20,000 .. 50,0000%00:00 (00:00)Square EnixSquare Enix
296 Helping Hand Jul 26, 2018 $8.99N/A (N/A)0 .. 20,0000%00:00 (00:00)HubblegumHubblegum
297 Attack of the Gigant Zombie vs Unity chan Jul 20, 2018 $3.99N/A (N/A)0 .. 20,0000%00:00 (00:00)RusimituRusimitu
298 In memory of TITAN Jun 2, 2018 $14.99N/A (N/A)0 .. 20,0000%00:00 (00:00)Valhalla Universe, Inc.XR Studio LLC
299 Star Explorers May 8, 2018 $4.99N/A (N/A)50,000 .. 100,0000%00:00 (00:00)Schmidt WorkshopsSchmidt Workshops
300 oldTail May 3, 2018 $3.99N/A (N/A)0 .. 20,0000%00:00 (00:00)BK dddDangBK dddDang
301 AENTITY Apr 14, 2018 $11.99N/A (N/A)0 .. 20,0000%00:00 (00:00)ARQUOIAARQUOIA
302 Hovercraft Drive Apr 6, 2018 $4.99N/A (N/A)0 .. 20,0000%00:00 (00:00)Builder7Bitlock Studio
303 Ostalgie: The Berlin Wall Mar 25, 2018 $5.99N/A (N/A)0 .. 20,0000%00:00 (00:00)NostalgamesNostalgames
304 The Adventurous Four Mar 22, 2018 $3.99N/A (N/A)0 .. 20,0000%00:00 (00:00)NLB projectNLB project
305 ECHOPLEX Mar 15, 2018 $14.99N/A (N/A)0 .. 20,0000%00:00 (00:00)Output GamesOutput Games, indienova
306 The Adventures of Elena Temple: Definitive Edition Mar 15, 2018 $0.79N/A (N/A)0 .. 20,0000%00:00 (00:00)GrimTalinGrimTalin
307 Attrition: Tactical Fronts Mar 6, 2018 $14.99N/A (N/A)0 .. 20,0000%00:00 (00:00)Cardboard KeepCardboard Keep
308 0°N 0°W Mar 1, 2018 $2.99N/A (N/A)20,000 .. 50,0000%00:00 (00:00)ColorfictionColorfiction
309 Handball Action Total Feb 16, 2018 $11.99N/A (N/A)0 .. 20,0000%00:00 (00:00)netmin gamesnetmin games
310 Border of her Heart Feb 14, 2018 $0.66N/A (N/A)20,000 .. 50,0000%00:00 (00:00)Tuomo LaineTuomo's games
311 Speed Dating for Ghosts Feb 13, 2018 $6.99N/A (N/A)0 .. 20,0000%00:00 (00:00)Copychaser GamesCopychaser Games
312 Beer! Feb 5, 2018 $1.99N/A (N/A)0 .. 20,0000%00:00 (00:00)Crystal ShardCrystal Shard
313 Return of Red Riding Hood Enhanced Edition Jan 19, 2018 $2.99N/A (N/A)0 .. 20,0000%00:00 (00:00)NLB projectNLB project
314 Pipe Push Paradise Jan 18, 2018 $9.99N/A (N/A)0 .. 20,0000%00:00 (00:00)Corey MartinCorey Martin
315 A Collection of Bad Moments Jan 12, 2018 $3.79N/A (N/A)0 .. 20,0000%00:00 (00:00)Sky Trail LtdSky Trail Ltd
316 Romancing SaGa 2 Dec 15, 2017 $24.99N/A (N/A)0 .. 20,0000%00:00 (00:00)Square Enix, ArtePiazzaSquare Enix
317 Puppet Kings Dec 11, 2017 $9.99N/A (N/A)0 .. 20,0000%00:00 (00:00)Timba GamesPlug In Digital
318 Death Coming/死神来了 Nov 6, 2017 $6.99N/A (N/A)200,000 .. 500,0000%00:00 (00:00)NEXT StudiosNEXT Studios
319 EPONYMOUS Oct 31, 2017 $2.99N/A (N/A)0 .. 20,0000%00:00 (00:00)Minor Key GamesMinor Key Games
320 Molten Armor Oct 20, 2017 $9.99N/A (N/A)0 .. 20,0000%00:00 (00:00)Brutal MuseBrutal Muse
321 A Dream For Aaron Oct 12, 2017 $8.99N/A (N/A)0 .. 20,0000%00:00 (00:00)Vidas SalavejusVidas Salavejus
322 Dawn of a Soul Oct 2, 2017 FreeN/A (N/A)0 .. 20,0000%00:00 (00:00)Waldemar UmanizWaldemar Umaniz
323 The King's Heroes Sep 22, 2017 $9.99N/A (N/A)20,000 .. 50,0000%00:00 (00:00)Aldorlea GamesAldorlea Games
324 Masked Forces 2: Mystic Demons Sep 14, 2017 $4.99N/A (N/A)20,000 .. 50,0000%00:00 (00:00)FreezeNovaFreezeNova
325 A Robot Named Fight! Sep 7, 2017 $12.99N/A (N/A)50,000 .. 100,0000%00:00 (00:00)Morningstar Game StudioMorningstar Game Studio
326 Star Story: The Horizon Escape Sep 5, 2017 $14.99N/A (N/A)20,000 .. 50,0000%00:00 (00:00)EvilCoGamesEvilCoGames
327 AEGYPTUS Aug 15, 2017 $0.99N/A (N/A)0 .. 20,0000%00:00 (00:00)L.C.JustPlayNow
328 Plexus Jul 31, 2017 $2.99N/A (N/A)20,000 .. 50,0000%00:00 (00:00)Plexus teamPlexus team
329 The Letter - Horror Visual Novel Jul 24, 2017 $19.99N/A (N/A)100,000 .. 200,0000%00:00 (00:00)Yangyang MobileYangyang Mobile
330 寇莎梅特:困世迷情 Consummate:Missing World Jul 21, 2017 $0.49N/A (N/A)20,000 .. 50,0000%00:00 (00:00)冷笑黑妖冷笑黑妖
331 Sentience: The Android's Tale Jun 2, 2017 $4.99N/A (N/A)100,000 .. 200,0000%00:00 (00:00)Pilgrim AdventuresGrabTheGames
332 Strikey Sisters Jun 1, 2017 $1.99N/A (N/A)0 .. 20,0000%00:00 (00:00)DYA GamesDYA Games
333 Super Army of Tentacles 3: The Search for Army of Tentacles 2 May 30, 2017 $10.99N/A (N/A)50,000 .. 100,0000%00:00 (00:00)Stegalosaurus Game DevelopmentStegalosaurus Game Development
334 Masked Shooters May 21, 2017 $0.99N/A (N/A)20,000 .. 50,0000%00:00 (00:00)FreezeNovaFreezeNova
335 Die With Glory — Point and Click Adventure Game May 11, 2017 $5.99N/A (N/A)0 .. 20,0000%00:00 (00:00)CastleVeslo Games
336 Dragon Essence - Color My World - May 5, 2017 $19.99N/A (N/A)0 .. 20,0000%00:00 (00:00)Zeiva IncZeiva Inc
337 </reality> Apr 18, 2017 $11.99N/A (N/A)0 .. 20,0000%00:00 (00:00)Fancy Fish GamesFancy Fish Games
338 Majotori Mar 28, 2017 $5.99N/A (N/A)50,000 .. 100,0000%00:00 (00:00)MajorariattoMajorariatto
339 Trajectory Mar 10, 2017 $6.99N/A (N/A)0 .. 20,0000%00:00 (00:00)Sky Trail LtdSky Trail Ltd
340 Revhead Mar 9, 2017 $19.99N/A (N/A)0 .. 20,0000%00:00 (00:00)Creative Pudding Hungary Llc.Creative Pudding Hungary Llc.
341 All the Delicate Duplicates Feb 17, 2017 $7.99N/A (N/A)0 .. 20,0000%00:00 (00:00)Mez Breeze, Andy CampbellThe Space, One to One Development Trust, Mez Breeze Design
342 The Barbarian and the Subterranean Caves Feb 9, 2017 $4.99N/A (N/A)0 .. 20,0000%00:00 (00:00)NLB projectNLB project
343 Poi Feb 1, 2017 $9.99N/A (N/A)20,000 .. 50,0000%00:00 (00:00)PolyKidPolyKid
344 Juno's Darkest Hour Dec 19, 2016 $2.99N/A (N/A)0 .. 20,0000%00:00 (00:00)Antoine BilodeauAntoine Bilodeau
345 Natural - Beyond Nature - Dec 12, 2016 $9.99N/A (N/A)0 .. 20,0000%00:00 (00:00)Zeiva IncZeiva Inc
346 Exoplanet: First Contact Dec 9, 2016 $19.99N/A (N/A)20,000 .. 50,0000%00:00 (00:00)AlersteamGrabTheGames, UpgradePoint
347 Zolg Dec 2, 2016 $0.99N/A (N/A)100,000 .. 200,0000%00:00 (00:00)Robert AlvarezRobert Alvarez
348 Masked Forces Nov 23, 2016 $0.99N/A (N/A)20,000 .. 50,0000%00:00 (00:00)FreezeNovaFreezeNova
349 True Backrooms Mar 11, 2024 $1.99N/A (N/A)0 .. 20,0000%00:00 (00:00)WafflePawsWafflePaws
350 Sig.NULL Sep 27, 2016 $7.99N/A (N/A)20,000 .. 50,0000%00:00 (00:00)SaintHeiserHalf-Face Games
351 Will of the Gods Aug 29, 2016 $2.99N/A (N/A)0 .. 20,0000%00:00 (00:00)Comrades Inc.Comrades Inc.
352 The Cat! Porfirio's Adventure Aug 4, 2016 $0.71N/A (N/A)20,000 .. 50,0000%00:00 (00:00)Cats Who PlayCats Who Play
353 Mad Combat Marines Jul 13, 2016 $0.99N/A (N/A)50,000 .. 100,0000%00:00 (00:00)FreezeNovaFreezeNova
354 Candy Blast Jun 30, 2016 $4.99N/A (N/A)50,000 .. 100,0000%00:00 (00:00)White Rabbit GamesWhite Rabbit Games
355 Loot Hound Nov 17, 2015 $7.99N/A (N/A)0 .. 20,0000%00:00 (00:00)Rhizome Games™Rhizome Games™
356 Cloudrift Oct 30, 2015 $6.99N/A (N/A)0 .. 20,0000%00:00 (00:00)friendlyOctopusfriendlyOctopus
357 Super Star Path Jun 22, 2015 $0.99N/A (N/A)100,000 .. 200,0000%00:00 (00:00)DYA GamesDYA Games
358 Artifact Adventure Jun 1, 2015 $6.99N/A (N/A)20,000 .. 50,0000%00:00 (00:00)bluffmanPLAYISM
359 Asguaard Apr 10, 2015 $0.76N/A (N/A)50,000 .. 100,0000%00:00 (00:00)Aldorlea GamesAldorlea Games
360 Super Win the Game Oct 1, 2014 $7.99N/A (N/A)50,000 .. 100,0000%00:00 (00:00)Minor Key GamesMinor Key Games
361 Train of Afterlife Jan 13, 2012 $9.99N/A (N/A)20,000 .. 50,0000%00:00 (00:00)Zeiva IncZeiva Inc
362 X-note Jan 16, 2015 $14.99N/A (N/A)20,000 .. 50,0000%00:00 (00:00)Zeiva IncZeiva Inc
363 Creatures Village Nov 11, 2000 $5.99N/A (N/A)20,000 .. 50,0000%00:00 (00:00)Creature LabsGameware Europe, Critter Consortium
364 Creatures: The Albian Years Aug 27, 1998 $5.99N/A (N/A)100,000 .. 200,0000%00:00 (00:00)Creature LabsGameware Europe, Critter Consortium
365 Sea Legends May 31, 1996 $6.99N/A (N/A)50,000 .. 100,0000%00:00 (00:00)Mir Dialogue, OceanZiggurat
366 VR Soccer '96 Mar 31, 1996 $9.99N/A (N/A)50,000 .. 100,0000%00:00 (00:00)Gremlin Interactive Ltd.Interplay
Overview

Nonlinear

Games with this tag: 366
Average userscore: N/A%
Average metascore: 76.5%
Average playtime: 11:47
Total copies owned: 26,466,000
Average price: $8.2
Help

Owners: Estimated number of people owning this game. The number might be way too small for new releases and sometimes way too big for games that had free weekend event recently. Read more on About page.

Playtime: Average hours played in total per person that have actually launched this game since March 2009. This time is calculated for the whole lifetime, not for the particular year.

Average score: Average users and metacritic score for all games with this score assigned.

Average playtime: Average lifetime playtime for all games where this data is available.

Games in this genre: Self-explaining - number of games with this tag. Only inculdes games with sales data available.

Total copies owned: Refers to total copies of games with this tag acquired by users for the lifetime. Includes copies sold, downloaded for free and given out.

This number might be too small for recently released games or too big for games that had a free weekend in the last couple of months.

Graphs

Login required.

Please register or log in to see this information.

Login required.

Please register or log in to see this information.